Time;durP1;ratioP1;P1;durP2;ratioP2;P2;SDS_P1;SDS_P2;PMS_P1;PMS_P2;Temp;Humidity;BMP_temperature;BMP_pressure;BME280_temperature;BME280_humidity;BME280_pressure;Samples;Min_cycle;Max_cycle;Signal;HPM_P1;HPM_P2
2023/09/25 00:01:46;;;;;;;8.57;2.88;;;;;;;11.82;100.00;102066.63;5134379;28;20035;-68
2023/09/25 00:04:17;;;;;;;6.28;2.85;;;;;;;11.75;100.00;102065.50;5136022;28;20484;-69
2023/09/25 00:06:48;;;;;;;7.68;2.65;;;;;;;11.71;100.00;102068.63;5119731;28;20030;-69
2023/09/25 00:09:18;;;;;;;7.22;2.72;;;;;;;11.60;100.00;102064.25;5138020;28;20045;-70
2023/09/25 00:11:49;;;;;;;5.50;2.80;;;;;;;11.55;100.00;102063.81;5133310;28;20031;-69
2023/09/25 00:14:19;;;;;;;6.18;2.67;;;;;;;11.55;100.00;102066.50;5135134;28;20378;-69
2023/09/25 00:16:50;;;;;;;8.45;2.88;;;;;;;11.52;100.00;102064.94;5139606;28;20033;-70
2023/09/25 00:19:20;;;;;;;5.90;3.28;;;;;;;11.47;100.00;102067.22;5138403;28;20019;-69
2023/09/25 00:21:51;;;;;;;12.93;3.05;;;;;;;11.43;100.00;102065.78;5140233;28;20069;-69
2023/09/25 00:24:21;;;;;;;5.97;3.03;;;;;;;11.38;100.00;102068.06;5140406;28;20023;-70
2023/09/25 00:26:52;;;;;;;5.10;2.92;;;;;;;11.37;100.00;102074.44;5137677;28;20031;-70
2023/09/25 00:29:22;;;;;;;4.90;2.35;;;;;;;11.33;100.00;102068.47;5142342;28;20254;-70
2023/09/25 00:31:53;;;;;;;7.25;3.20;;;;;;;11.34;100.00;102072.84;5140431;28;20023;-69
2023/09/25 00:34:23;;;;;;;6.85;2.95;;;;;;;11.32;100.00;102066.78;5144090;28;20027;-70
2023/09/25 00:36:54;;;;;;;5.40;2.72;;;;;;;11.28;100.00;102065.38;5141772;28;20023;-70
2023/09/25 00:39:24;;;;;;;6.03;2.78;;;;;;;11.25;100.00;102062.97;5135414;28;20038;-70
2023/09/25 00:41:55;;;;;;;4.47;2.67;;;;;;;11.43;100.00;102065.78;5133466;28;20019;-70
2023/09/25 00:44:25;;;;;;;6.00;2.42;;;;;;;11.47;100.00;102056.47;5137870;28;20042;-70
2023/09/25 00:46:56;;;;;;;4.60;2.53;;;;;;;11.49;100.00;102059.00;5133723;28;20342;-70
2023/09/25 00:49:27;;;;;;;6.50;2.85;;;;;;;11.54;100.00;102062.94;5133237;28;20031;-70
2023/09/25 00:51:59;;;;;;;6.80;2.80;;;;;;;11.59;100.00;102052.63;5133980;28;20085;-71
2023/09/25 00:54:33;;;;;;;6.85;2.78;;;;;;;11.60;100.00;102048.97;5139343;28;20034;-70
2023/09/25 00:57:03;;;;;;;7.05;2.78;;;;;;;11.65;100.00;102056.59;5141180;28;20030;-71
2023/09/25 00:59:36;;;;;;;9.50;2.63;;;;;;;11.68;100.00;102051.75;5133489;28;20376;-70
2023/09/25 01:02:07;;;;;;;8.95;2.78;;;;;;;11.77;100.00;102054.59;5140784;28;20022;-70
2023/09/25 01:04:38;;;;;;;4.75;2.72;;;;;;;11.85;100.00;102054.75;5133025;28;20033;-70
2023/09/25 01:07:08;;;;;;;6.65;2.80;;;;;;;11.86;100.00;102061.81;5134775;28;20027;-70
2023/09/25 01:09:39;;;;;;;6.05;2.40;;;;;;;11.90;100.00;102057.84;5123349;28;20464;-70
2023/09/25 01:12:09;;;;;;;4.70;2.72;;;;;;;11.93;100.00;102061.06;5137960;28;20037;-70
2023/09/25 01:14:40;;;;;;;4.20;2.38;;;;;;;11.92;100.00;102066.63;5119423;28;20531;-70
2023/09/25 01:17:11;;;;;;;6.65;2.67;;;;;;;11.89;100.00;102064.19;5137613;28;20031;-70
2023/09/25 01:19:43;;;;;;;5.22;2.20;;;;;;;11.91;100.00;102059.53;5141381;28;20443;-70
2023/09/25 01:22:13;;;;;;;4.75;1.70;;;;;;;11.84;100.00;102053.88;5138376;28;20105;-70
2023/09/25 01:24:44;;;;;;;6.05;2.47;;;;;;;11.82;100.00;102060.41;5140630;28;20379;-70
2023/09/25 01:27:14;;;;;;;3.63;2.17;;;;;;;11.75;100.00;102057.44;5136582;28;20059;-70
2023/09/25 01:29:45;;;;;;;5.63;2.40;;;;;;;11.73;100.00;102058.56;5134381;28;20031;-70
2023/09/25 01:32:15;;;;;;;5.60;2.75;;;;;;;11.70;100.00;102064.19;5140335;28;20079;-70
2023/09/25 01:34:46;;;;;;;4.95;2.38;;;;;;;11.69;100.00;102063.34;5139510;28;20129;-70
2023/09/25 01:37:17;;;;;;;5.28;2.60;;;;;;;11.59;100.00;102058.00;5136421;28;20391;-70
2023/09/25 01:39:47;;;;;;;5.57;2.40;;;;;;;11.55;100.00;102058.44;5137375;28;20408;-70
2023/09/25 01:42:17;;;;;;;5.88;2.40;;;;;;;11.52;100.00;102056.88;5140373;28;20035;-70
2023/09/25 01:44:48;;;;;;;3.80;2.00;;;;;;;11.47;100.00;102050.25;5136661;28;20389;-70
2023/09/25 01:47:19;;;;;;;3.55;2.13;;;;;;;11.42;100.00;102056.03;5141496;28;20488;-70
2023/09/25 01:49:50;;;;;;;5.28;2.30;;;;;;;11.39;100.00;102059.00;5136811;28;20031;-70
2023/09/25 01:52:20;;;;;;;6.43;2.33;;;;;;;11.35;100.00;102063.00;5130494;28;20026;-70
2023/09/25 01:54:51;;;;;;;5.18;2.38;;;;;;;11.32;100.00;102063.25;5140238;28;20498;-70
2023/09/25 01:57:21;;;;;;;3.53;2.22;;;;;;;11.30;100.00;102065.25;5133212;28;20116;-70
2023/09/25 01:59:52;;;;;;;6.55;2.22;;;;;;;11.27;100.00;102057.47;5138173;28;20029;-70
2023/09/25 02:02:22;;;;;;;4.80;2.10;;;;;;;11.24;100.00;102060.41;5139544;28;20061;-70
2023/09/25 02:04:55;;;;;;;4.25;2.20;;;;;;;11.23;100.00;102059.56;5137133;28;20027;-70
2023/09/25 02:07:25;;;;;;;5.70;2.22;;;;;;;11.23;100.00;102061.41;5140203;28;20499;-70
2023/09/25 02:09:56;;;;;;;5.05;2.20;;;;;;;11.19;100.00;102057.31;5136900;28;20038;-70
2023/09/25 02:12:27;;;;;;;5.63;2.50;;;;;;;11.17;100.00;102053.94;5139876;28;20514;-70
2023/09/25 02:15:00;;;;;;;8.32;2.38;;;;;;;11.14;100.00;102052.34;5143678;28;20046;-70
2023/09/25 02:17:30;;;;;;;4.55;2.28;;;;;;;11.11;100.00;102048.13;5144618;28;20041;-70
2023/09/25 02:20:20;;;;;;;5.10;2.42;;;;;;;11.11;100.00;102033.84;5139849;28;20039;-70
2023/09/25 02:22:51;;;;;;;7.20;2.78;;;;;;;11.05;100.00;102042.47;5141767;28;20026;-69
2023/09/25 02:25:26;;;;;;;5.57;1.98;;;;;;;11.01;100.00;102036.53;5142991;28;20058;-70
2023/09/25 02:27:59;;;;;;;5.80;2.35;;;;;;;10.94;100.00;102035.38;5144423;28;20023;-70
2023/09/25 02:30:30;;;;;;;7.63;2.17;;;;;;;10.88;100.00;102039.47;5126115;28;20030;-70
2023/09/25 02:33:01;;;;;;;4.47;2.38;;;;;;;10.86;100.00;102040.63;5140520;28;20035;-70
2023/09/25 02:35:32;;;;;;;4.22;2.35;;;;;;;10.81;100.00;102035.66;5138307;28;20034;-71
2023/09/25 02:38:04;;;;;;;6.68;2.63;;;;;;;10.82;100.00;102034.66;5139953;28;20096;-71
2023/09/25 02:40:34;;;;;;;5.53;2.80;;;;;;;10.79;100.00;102039.44;5143538;28;20070;-71
2023/09/25 02:43:05;;;;;;;5.70;2.45;;;;;;;10.76;100.00;102039.75;5141108;28;20385;-71
2023/09/25 02:45:36;;;;;;;8.18;2.20;;;;;;;10.76;100.00;102039.75;5136708;28;20081;-70
2023/09/25 02:48:06;;;;;;;5.40;2.08;;;;;;;10.74;100.00;102030.97;5140183;28;20034;-71
2023/09/25 02:50:36;;;;;;;5.15;2.25;;;;;;;10.73;100.00;102042.69;5139762;28;20034;-70
2023/09/25 02:53:07;;;;;;;2.92;1.90;;;;;;;10.72;100.00;102043.69;5138014;28;20027;-70
2023/09/25 02:55:37;;;;;;;9.35;3.35;;;;;;;10.69;100.00;102047.47;5142612;28;20562;-70
2023/09/25 02:58:08;;;;;;;5.70;2.60;;;;;;;10.71;100.00;102048.22;5136914;28;20035;-70
2023/09/25 03:00:38;;;;;;;3.95;2.22;;;;;;;10.71;100.00;102039.31;5120332;28;20031;-71
2023/09/25 03:03:09;;;;;;;5.35;2.45;;;;;;;10.74;100.00;102044.38;5126087;28;20085;-70
2023/09/25 03:05:39;;;;;;;5.35;2.67;;;;;;;10.67;100.00;102054.00;5139634;28;20019;-71
2023/09/25 03:08:10;;;;;;;5.97;2.28;;;;;;;10.66;100.00;102052.31;5140052;28;20444;-70
2023/09/25 03:10:40;;;;;;;6.88;2.45;;;;;;;10.62;100.00;102052.56;5136003;28;20019;-70
2023/09/25 03:13:11;;;;;;;4.57;2.78;;;;;;;10.62;100.00;102051.72;5140193;28;20089;-70
2023/09/25 03:15:41;;;;;;;4.90;2.53;;;;;;;10.62;100.00;102052.56;5141630;28;20026;-71
2023/09/25 03:18:12;;;;;;;5.25;2.38;;;;;;;10.63;100.00;102050.72;5137227;28;20113;-70
2023/09/25 03:20:43;;;;;;;5.63;2.80;;;;;;;10.67;100.00;102054.84;5142016;28;20030;-70
2023/09/25 03:23:13;;;;;;;6.97;2.85;;;;;;;10.71;100.00;102050.91;5142732;28;20030;-70
2023/09/25 03:25:43;;;;;;;5.25;2.40;;;;;;;10.76;100.00;102045.13;5136000;28;20381;-70
2023/09/25 03:28:14;;;;;;;4.82;2.40;;;;;;;10.80;100.00;102041.19;5138461;28;20034;-71
2023/09/25 03:30:45;;;;;;;4.57;2.60;;;;;;;10.81;100.00;102043.72;5136400;28;20621;-70
2023/09/25 03:33:16;;;;;;;7.13;2.58;;;;;;;10.83;100.00;102047.09;5139611;28;20031;-71
2023/09/25 03:35:46;;;;;;;6.15;2.75;;;;;;;10.87;100.00;102050.34;5140183;28;20030;-70
2023/09/25 03:38:17;;;;;;;6.88;1.95;;;;;;;10.87;100.00;102042.31;5141672;28;20038;-71
2023/09/25 03:40:48;;;;;;;5.45;2.20;;;;;;;10.85;100.00;102045.13;5139102;28;20040;-70
2023/09/25 03:43:18;;;;;;;8.05;2.47;;;;;;;10.87;100.00;102050.34;5124874;28;20026;-70
2023/09/25 03:45:49;;;;;;;5.00;2.40;;;;;;;10.94;100.00;102046.13;5143730;28;20019;-70
2023/09/25 03:48:19;;;;;;;6.43;3.20;;;;;;;10.98;100.00;102046.69;5141644;28;20575;-70
2023/09/25 03:50:50;;;;;;;6.03;2.70;;;;;;;10.96;100.00;102046.00;5135752;28;20370;-70
2023/09/25 03:53:20;;;;;;;4.55;2.20;;;;;;;10.91;100.00;102049.09;5140324;28;20088;-70
2023/09/25 03:55:51;;;;;;;3.83;2.30;;;;;;;10.88;100.00;102057.41;5137905;28;20041;-70
2023/09/25 03:58:21;;;;;;;5.25;2.22;;;;;;;10.83;100.00;102052.47;5139229;28;20031;-70
2023/09/25 04:00:52;;;;;;;3.35;2.10;;;;;;;10.79;100.00;102061.81;5142101;28;20030;-70
2023/09/25 04:03:23;;;;;;;4.97;2.38;;;;;;;10.77;100.00;102050.34;5140899;28;20038;-70
2023/09/25 04:05:53;;;;;;;3.80;2.10;;;;;;;10.75;100.00;102054.16;5139967;28;20169;-70
2023/09/25 04:08:24;;;;;;;6.60;2.10;;;;;;;10.75;100.00;102059.53;5139229;28;20540;-70
2023/09/25 04:10:54;;;;;;;4.07;2.03;;;;;;;10.76;100.00;102055.84;5139011;28;20028;-70
2023/09/25 04:13:26;;;;;;;2.88;1.90;;;;;;;10.79;100.00;102055.56;5142173;28;20023;-72
2023/09/25 04:15:57;;;;;;;4.88;2.30;;;;;;;10.85;100.00;102049.66;5141110;28;20484;-70
2023/09/25 04:18:28;;;;;;;8.35;2.60;;;;;;;11.00;100.00;102050.94;5139345;28;20037;-70
2023/09/25 04:21:02;;;;;;;3.55;2.08;;;;;;;11.12;100.00;102055.19;5141651;28;20118;-70
2023/09/25 04:23:33;;;;;;;3.85;2.33;;;;;;;11.23;100.00;102059.56;5141444;28;20447;-71
2023/09/25 04:26:04;;;;;;;3.03;1.92;;;;;;;11.29;100.00;102053.63;5139438;28;20058;-70
2023/09/25 04:28:36;;;;;;;9.93;2.47;;;;;;;11.41;100.00;102057.88;5138836;28;20039;-70
2023/09/25 04:31:07;;;;;;;5.68;2.42;;;;;;;11.57;100.00;102060.00;5141436;28;20039;-71
2023/09/25 04:33:38;;;;;;;5.25;2.10;;;;;;;11.62;100.00;102055.03;5141212;28;20343;-70
2023/09/25 04:36:10;;;;;;;2.92;1.77;;;;;;;11.80;100.00;102065.06;5138906;28;20031;-71
2023/09/25 04:38:40;;;;;;;6.85;2.40;;;;;;;11.90;100.00;102068.63;5140289;28;20038;-70
2023/09/25 04:41:11;;;;;;;5.35;2.13;;;;;;;11.98;100.00;102065.19;5141346;28;20357;-70
2023/09/25 04:43:41;;;;;;;5.50;2.10;;;;;;;12.01;100.00;102071.13;5138386;28;20041;-71
2023/09/25 04:46:12;;;;;;;9.75;2.30;;;;;;;12.02;100.00;102069.28;5142408;28;20031;-70
2023/09/25 04:48:43;;;;;;;6.40;2.63;;;;;;;12.07;100.00;102067.00;5138725;28;20387;-70
2023/09/25 04:51:16;;;;;;;3.10;1.63;;;;;;;12.09;100.00;102071.22;5138637;28;20027;-71
2023/09/25 04:53:47;;;;;;;8.38;2.33;;;;;;;12.11;100.00;102074.63;5144093;28;20027;-70
2023/09/25 04:56:20;;;;;;;7.00;2.13;;;;;;;12.13;100.00;102079.84;5137578;28;20035;-71
2023/09/25 04:58:51;;;;;;;7.07;2.33;;;;;;;12.16;100.00;102075.03;5138694;28;20026;-70
2023/09/25 05:01:22;;;;;;;4.70;2.10;;;;;;;12.18;100.00;102078.41;5140704;28;20472;-70
2023/09/25 05:03:52;;;;;;;6.22;2.22;;;;;;;12.17;100.00;102082.09;5140366;28;20447;-70
2023/09/25 05:06:23;;;;;;;4.55;2.08;;;;;;;12.14;100.00;102082.38;5123489;28;20034;-70
2023/09/25 05:08:53;;;;;;;5.78;1.90;;;;;;;12.06;100.00;102089.50;5137972;28;20085;-70
2023/09/25 05:11:24;;;;;;;4.28;2.00;;;;;;;12.00;100.00;102090.06;5140250;28;20484;-71
2023/09/25 05:13:55;;;;;;;3.15;1.65;;;;;;;11.98;100.00;102090.22;5136410;28;20035;-70
2023/09/25 05:16:25;;;;;;;5.28;1.98;;;;;;;12.02;100.00;102094.31;5140254;28;20037;-70
2023/09/25 05:18:58;;;;;;;9.52;2.05;;;;;;;12.08;100.00;102092.91;5138199;28;20154;-71
2023/09/25 05:21:28;;;;;;;5.15;1.88;;;;;;;12.10;100.00;102096.31;5120886;28;20030;-71
2023/09/25 05:23:59;;;;;;;5.63;1.90;;;;;;;12.21;100.00;102092.59;5140416;28;20038;-70
2023/09/25 05:26:34;;;;;;;7.13;2.13;;;;;;;12.23;100.00;102090.59;5138407;28;20027;-70
2023/09/25 05:29:05;;;;;;;4.95;2.20;;;;;;;12.24;100.00;102089.59;5140277;28;20026;-70
2023/09/25 05:31:35;;;;;;;2.33;1.65;;;;;;;12.18;100.00;102088.34;5138237;28;20220;-70
2023/09/25 05:34:06;;;;;;;7.93;2.10;;;;;;;12.11;100.00;102080.00;5139982;28;20394;-70
2023/09/25 05:36:36;;;;;;;5.80;2.30;;;;;;;12.12;100.00;102088.94;5138281;28;20049;-71
2023/09/25 05:39:08;;;;;;;3.22;1.65;;;;;;;12.09;100.00;102095.44;5139868;28;20039;-71
2023/09/25 05:41:39;;;;;;;4.03;2.13;;;;;;;12.03;100.00;102100.56;5141896;28;20034;-70
2023/09/25 05:44:10;;;;;;;4.78;2.10;;;;;;;12.02;100.00;102102.41;5137389;28;20439;-71
2023/09/25 05:46:40;;;;;;;4.93;2.88;;;;;;;12.04;100.00;102103.09;5129921;28;20298;-70
2023/09/25 05:49:11;;;;;;;6.47;2.58;;;;;;;12.08;100.00;102104.50;5132505;28;20392;-70
2023/09/25 05:51:41;;;;;;;3.15;1.60;;;;;;;12.02;100.00;102104.25;5130883;28;20108;-70
2023/09/25 05:54:12;;;;;;;2.88;1.88;;;;;;;11.97;100.00;102103.81;5136611;28;20451;-70
2023/09/25 05:56:44;;;;;;;4.20;2.00;;;;;;;11.99;100.00;102109.91;5138695;28;20069;-70
2023/09/25 05:59:15;;;;;;;5.88;2.00;;;;;;;11.98;100.00;102118.97;5134755;28;20034;-70
2023/09/25 06:01:46;;;;;;;4.00;1.67;;;;;;;11.97;100.00;102111.91;5136530;28;20046;-70
2023/09/25 06:04:17;;;;;;;6.97;2.20;;;;;;;11.97;100.00;102112.75;5138097;28;20066;-70
2023/09/25 06:06:48;;;;;;;5.53;2.30;;;;;;;11.97;100.00;102109.22;5141939;28;20046;-70
2023/09/25 06:09:19;;;;;;;4.28;1.88;;;;;;;11.99;100.00;102108.06;5136668;28;20030;-70
2023/09/25 06:11:49;;;;;;;7.40;2.25;;;;;;;12.04;100.00;102113.84;5131888;28;20109;-70
2023/09/25 06:14:21;;;;;;;4.70;2.25;;;;;;;12.05;100.00;102112.00;5128388;28;20043;-70
2023/09/25 06:16:54;;;;;;;10.00;2.67;;;;;;;12.12;100.00;102115.81;5126121;28;20041;-70
2023/09/25 06:19:26;;;;;;;5.43;2.35;;;;;;;12.19;100.00;102122.31;5130218;28;20049;-70
2023/09/25 06:21:57;;;;;;;10.57;2.63;;;;;;;12.29;100.00;102119.59;5124929;28;20117;-70
2023/09/25 06:24:27;;;;;;;8.15;2.42;;;;;;;12.38;100.00;102118.72;5126579;28;20031;-70
2023/09/25 06:26:59;;;;;;;7.00;2.38;;;;;;;12.53;100.00;102116.41;5131358;28;20498;-70
2023/09/25 06:29:31;;;;;;;7.50;2.35;;;;;;;12.65;100.00;102113.38;5123205;28;20110;-70
2023/09/25 06:32:01;;;;;;;4.13;2.17;;;;;;;12.80;100.00;102111.03;5126457;28;20032;-70
2023/09/25 06:34:32;;;;;;;9.05;2.10;;;;;;;13.06;100.00;102121.94;5124394;28;20388;-70
2023/09/25 06:37:02;;;;;;;4.07;1.90;;;;;;;13.42;100.00;102122.00;5128998;28;20039;-70
2023/09/25 06:39:33;;;;;;;5.78;2.60;;;;;;;13.80;100.00;102122.66;5125489;28;21122;-70
2023/09/25 06:42:04;;;;;;;5.05;2.35;;;;;;;14.19;100.00;102120.41;5124718;28;20045;-70
2023/09/25 06:44:34;;;;;;;8.27;2.40;;;;;;;14.52;100.00;102121.47;5126919;28;20477;-70
2023/09/25 06:47:05;;;;;;;4.38;1.85;;;;;;;14.80;100.00;102115.84;5122701;28;20030;-70
2023/09/25 06:49:35;;;;;;;6.82;2.15;;;;;;;15.07;100.00;102121.03;5126872;28;20053;-70
2023/09/25 06:52:06;;;;;;;4.20;1.75;;;;;;;15.41;100.00;102112.81;5123992;28;20039;-70
2023/09/25 06:54:37;;;;;;;6.60;2.25;;;;;;;15.55;100.00;102109.41;5127663;28;20042;-70
2023/09/25 06:57:07;;;;;;;5.93;2.08;;;;;;;15.76;100.00;102116.22;5126610;28;20026;-70
2023/09/25 06:59:38;;;;;;;5.88;1.77;;;;;;;15.95;100.00;102120.44;5121582;28;20026;-70
2023/09/25 07:02:08;;;;;;;6.38;2.10;;;;;;;16.08;100.00;102115.34;5131370;28;20400;-70
2023/09/25 07:04:39;;;;;;;3.30;1.73;;;;;;;16.09;100.00;102117.03;5122848;28;20030;-71
2023/09/25 07:07:10;;;;;;;2.30;1.50;;;;;;;16.11;100.00;102115.00;5125962;28;20597;-70
2023/09/25 07:09:41;;;;;;;5.05;2.13;;;;;;;16.33;100.00;102107.19;5128958;28;20307;-70
2023/09/25 07:12:14;;;;;;;3.97;1.95;;;;;;;16.57;100.00;102115.22;5133568;28;20039;-70
2023/09/25 07:14:51;;;;;;;5.05;1.92;;;;;;;16.69;100.00;102113.81;5131063;28;20377;-70
2023/09/25 07:17:22;;;;;;;5.78;2.08;;;;;;;16.76;100.00;102113.97;5122081;28;20409;-70
2023/09/25 07:19:55;;;;;;;5.78;2.30;;;;;;;16.82;100.00;102114.13;5128662;28;20058;-71
2023/09/25 07:22:27;;;;;;;6.00;1.80;;;;;;;17.09;100.00;102120.09;5122781;28;20803;-70
2023/09/25 07:24:58;;;;;;;6.93;1.63;;;;;;;17.23;100.00;102122.03;5124239;28;20392;-70
2023/09/25 07:27:28;;;;;;;3.67;2.00;;;;;;;17.55;100.00;102111.97;5129779;28;20037;-70
2023/09/25 07:30:05;;;;;;;3.28;1.63;;;;;;;17.58;100.00;102114.34;5133935;28;20637;-71
2023/09/25 07:32:35;;;;;;;4.68;1.58;;;;;;;17.72;100.00;102116.25;5133648;28;20037;-71
2023/09/25 07:35:09;;;;;;;3.85;1.85;;;;;;;17.81;100.00;102131.47;5131920;28;20469;-70
2023/09/25 07:37:41;;;;;;;3.28;1.60;;;;;;;17.83;100.00;102129.41;5132778;28;20043;-70
2023/09/25 07:40:14;;;;;;;3.22;1.77;;;;;;;17.79;100.00;102127.25;5132591;28;20558;-70
2023/09/25 07:42:44;;;;;;;3.42;1.70;;;;;;;17.85;100.00;102116.50;5129064;28;20045;-70
2023/09/25 07:45:22;;;;;;;5.50;2.20;;;;;;;18.04;100.00;102117.84;5128204;28;20030;-70
2023/09/25 07:47:54;;;;;;;5.40;1.90;;;;;;;18.14;100.00;102120.31;5129034;28;20034;-70
2023/09/25 07:50:25;;;;;;;6.43;2.20;;;;;;;18.13;100.00;102121.34;5128728;28;20031;-70
2023/09/25 07:52:58;;;;;;;4.60;1.90;;;;;;;18.14;100.00;102114.88;5119824;28;20038;-70
2023/09/25 07:55:30;;;;;;;5.30;1.90;;;;;;;18.06;100.00;102117.66;5123462;28;20496;-70
2023/09/25 07:58:03;;;;;;;8.20;1.65;;;;;;;18.16;100.00;102120.94;5134208;28;20052;-70
2023/09/25 08:00:37;;;;;;;4.50;1.40;;;;;;;18.40;100.00;102122.56;5127537;28;20042;-70
2023/09/25 08:03:08;;;;;;;3.28;1.73;;;;;;;18.46;100.00;102118.25;5126938;28;20039;-71
2023/09/25 08:05:40;;;;;;;6.00;1.92;;;;;;;18.64;100.00;102121.44;5140732;28;20029;-70
2023/09/25 08:08:11;;;;;;;3.78;1.70;;;;;;;19.06;100.00;102119.91;5145872;28;20056;-70
2023/09/25 08:10:45;;;;;;;4.65;1.95;;;;;;;19.05;100.00;102124.50;5143479;28;20027;-71
2023/09/25 08:13:18;;;;;;;3.35;1.67;;;;;;;19.06;100.00;102115.31;5136744;28;20027;-70
2023/09/25 08:15:48;;;;;;;4.60;1.73;;;;;;;19.27;100.00;102116.38;5143445;28;20034;-72
2023/09/25 08:18:19;;;;;;;5.90;1.63;;;;;;;19.30;100.00;102114.09;5139121;28;20436;-71
2023/09/25 08:20:49;;;;;;;5.15;1.77;;;;;;;19.24;100.00;102109.44;5138629;28;20046;-70
2023/09/25 08:23:20;;;;;;;4.50;1.48;;;;;;;19.57;100.00;102111.66;5139789;28;20027;-70
2023/09/25 08:25:50;;;;;;;7.47;1.60;;;;;;;19.53;100.00;102104.91;5139441;28;20084;-71
2023/09/25 08:28:21;;;;;;;2.35;1.70;;;;;;;19.24;100.00;102112.16;5139363;28;20027;-71
2023/09/25 08:30:51;;;;;;;3.40;1.50;;;;;;;19.40;100.00;102100.19;5142516;28;20042;-70
2023/09/25 08:33:22;;;;;;;3.78;2.05;;;;;;;19.50;100.00;102105.31;5140083;28;20105;-71
2023/09/25 08:35:52;;;;;;;5.00;1.73;;;;;;;19.51;100.00;102104.25;5139047;28;20026;-71
2023/09/25 08:38:23;;;;;;;6.07;1.95;;;;;;;19.62;100.00;102109.22;5136137;28;20042;-71
2023/09/25 08:40:53;;;;;;;2.95;1.63;;;;;;;19.83;100.00;102108.34;5138634;28;20393;-71
2023/09/25 08:43:26;;;;;;;2.78;1.52;;;;;;;19.95;100.00;102103.22;5138909;28;20030;-72
2023/09/25 08:45:57;;;;;;;3.38;1.48;;;;;;;20.03;100.00;102106.63;5141745;28;20022;-71
2023/09/25 08:48:28;;;;;;;4.00;1.58;;;;;;;20.07;100.00;102104.34;5140848;28;20058;-71
2023/09/25 08:50:58;;;;;;;3.83;1.60;;;;;;;20.44;100.00;102103.13;5136505;28;20069;-72
2023/09/25 08:53:29;;;;;;;3.58;1.75;;;;;;;20.69;100.00;102108.94;5142179;28;20456;-71
2023/09/25 08:56:00;;;;;;;4.85;1.85;;;;;;;20.65;100.00;102107.66;5142776;28;20085;-71
2023/09/25 08:58:31;;;;;;;6.00;1.98;;;;;;;20.73;100.00;102107.47;5138208;28;20049;-73
2023/09/25 09:01:01;;;;;;;4.85;1.73;;;;;;;20.85;100.00;102116.78;5141619;28;20027;-71
2023/09/25 09:03:34;;;;;;;2.95;1.45;;;;;;;20.80;100.00;102122.00;5139695;28;20049;-72
2023/09/25 09:06:05;;;;;;;7.68;1.92;;;;;;;21.04;100.00;102125.25;5139465;28;20525;-71
2023/09/25 09:08:36;;;;;;;3.22;1.40;;;;;;;20.81;100.00;102134.59;5140594;28;20030;-72
2023/09/25 09:11:13;;;;;;;4.55;1.67;;;;;;;20.74;100.00;102128.28;5141735;28;20103;-71
2023/09/25 09:13:44;;;;;;;2.78;1.55;;;;;;;20.46;100.00;102132.91;5142272;28;20034;-72
2023/09/25 09:16:17;;;;;;;11.90;1.92;;;;;;;20.38;100.00;102139.34;5148358;28;20096;-72
2023/09/25 09:18:48;;;;;;;4.03;1.83;;;;;;;20.62;100.00;102133.44;5138271;28;20034;-71
2023/09/25 09:21:27;;;;;;;6.47;1.67;;;;;;;20.72;100.00;102135.78;5139934;28;20026;-72
2023/09/25 09:23:58;;;;;;;3.50;1.80;;;;;;;20.89;100.00;102139.03;5140653;28;20027;-72
2023/09/25 09:26:29;;;;;;;7.53;1.70;;;;;;;21.12;100.00;102127.78;5139825;28;20198;-72
2023/09/25 09:28:59;;;;;;;9.85;1.63;;;;;;;21.28;100.00;102127.38;5138242;28;20040;-71
2023/09/25 09:31:30;;;;;;;2.88;1.58;;;;;;;21.10;100.00;102129.88;5142544;28;20034;-71
2023/09/25 09:34:03;;;;;;;2.05;1.40;;;;;;;20.93;100.00;102134.84;5138360;28;20097;-71
2023/09/25 09:36:34;;;;;;;3.95;1.40;;;;;;;21.14;100.00;102133.88;5135965;28;20034;-72
2023/09/25 09:39:10;;;;;;;3.85;1.70;;;;;;;21.23;100.00;102139.97;5137964;28;20038;-71
2023/09/25 09:41:44;;;;;;;4.97;1.65;;;;;;;21.27;100.00;102142.09;5138597;28;20508;-71
2023/09/25 09:44:14;;;;;;;5.07;1.40;;;;;;;21.17;100.00;102126.09;5141900;28;20381;-71
2023/09/25 09:46:46;;;;;;;3.97;1.58;;;;;;;21.26;100.00;102126.78;5139394;28;20201;-71
2023/09/25 09:49:20;;;;;;;3.65;1.52;;;;;;;20.99;100.00;102135.94;5140170;28;20113;-71
2023/09/25 09:51:51;;;;;;;3.80;1.58;;;;;;;21.04;100.00;102119.78;5141270;28;20030;-71
2023/09/25 09:54:23;;;;;;;3.97;1.60;;;;;;;21.04;100.00;102137.00;5140664;28;20026;-72
2023/09/25 09:56:55;;;;;;;5.32;1.98;;;;;;;21.36;100.00;102132.72;5141950;28;20030;-71
2023/09/25 09:59:25;;;;;;;3.65;1.50;;;;;;;21.52;100.00;102117.81;5138969;28;20026;-71
2023/09/25 10:01:57;;;;;;;4.63;1.75;;;;;;;21.68;100.00;102122.03;5139245;28;20034;-71
2023/09/25 10:04:29;;;;;;;3.75;1.55;;;;;;;21.44;100.00;102121.59;5138978;28;20634;-71
2023/09/25 10:07:04;;;;;;;2.33;1.42;;;;;;;21.35;100.00;102122.84;5138865;28;20041;-71
2023/09/25 10:09:35;;;;;;;6.25;1.70;;;;;;;21.39;100.00;102124.13;5140980;28;20035;-71
2023/09/25 10:12:05;;;;;;;3.10;1.40;;;;;;;21.36;100.00;102119.06;5138639;28;20093;-71
2023/09/25 10:14:41;;;;;;;3.10;1.63;;;;;;;21.37;100.00;102119.91;5139266;28;20102;-71
2023/09/25 10:17:12;;;;;;;2.97;1.52;;;;;;;21.52;100.00;102122.44;5136546;28;20038;-72
2023/09/25 10:19:47;;;;;;;3.50;1.55;;;;;;;21.79;100.00;102121.44;5134934;28;20526;-72
2023/09/25 10:22:26;;;;;;;3.97;1.70;;;;;;;22.02;100.00;102122.88;5139247;28;20045;-72
2023/09/25 10:25:04;;;;;;;3.75;1.67;;;;;;;22.23;100.00;102125.41;5138338;28;20388;-71
2023/09/25 10:27:36;;;;;;;9.75;1.63;;;;;;;22.04;100.00;102115.28;5134711;28;20038;-72
2023/09/25 10:30:11;;;;;;;3.65;1.50;;;;;;;21.79;100.00;102118.69;5134952;28;20102;-71
2023/09/25 10:32:49;;;;;;;4.72;1.70;;;;;;;22.11;100.00;102111.56;5135492;28;20038;-72
2023/09/25 10:35:36;;;;;;;7.82;1.85;;;;;;;22.15;100.00;102111.97;5137297;28;20030;-71
2023/09/25 10:38:17;;;;;;;3.05;1.58;;;;;;;22.18;100.00;102122.47;5139097;28;20305;-71
2023/09/25 10:40:50;;;;;;;4.32;1.88;;;;;;;22.40;100.00;102121.19;5134627;28;20493;-72
2023/09/25 10:43:22;;;;;;;4.43;1.67;;;;;;;22.57;100.00;102117.97;5142069;28;20038;-71
2023/09/25 10:45:54;;;;;;;5.30;1.92;;;;;;;22.52;100.00;102131.44;5146157;28;20056;-73
2023/09/25 10:48:26;;;;;;;4.28;1.95;;;;;;;22.47;100.00;102135.66;5134262;28;20488;-71
2023/09/25 10:50:57;;;;;;;7.30;1.58;;;;;;;22.59;100.00;102129.53;5136859;28;20109;-71
2023/09/25 10:53:27;;;;;;;7.15;1.63;;;;;;;22.56;100.00;102141.75;5142566;28;20037;-71
2023/09/25 10:55:58;;;;;;;4.07;1.48;;;;;;;22.78;100.00;102139.56;5138594;28;20130;-71
2023/09/25 10:58:28;;;;;;;4.07;1.77;;;;;;;22.96;100.00;102142.47;5138361;28;20388;-72
2023/09/25 11:01:02;;;;;;;3.35;1.77;;;;;;;23.15;100.00;102129.75;5139862;28;20038;-71
2023/09/25 11:03:32;;;;;;;4.80;2.03;;;;;;;23.20;100.00;102127.19;5135959;28;20381;-72
2023/09/25 11:06:03;;;;;;;6.05;1.90;;;;;;;23.30;100.00;102132.19;5141068;28;20213;-72
2023/09/25 11:08:34;;;;;;;6.78;1.98;;;;;;;23.64;100.00;102133.66;5136370;28;20149;-71
2023/09/25 11:11:06;;;;;;;4.20;1.77;;;;;;;23.67;100.00;102138.72;5134841;28;20035;-73
2023/09/25 11:13:36;;;;;;;3.65;1.73;;;;;;;23.74;100.00;102138.66;5137384;28;20031;-72
2023/09/25 11:16:08;;;;;;;5.07;1.88;;;;;;;23.80;100.00;102139.66;5129332;28;20654;-71
2023/09/25 11:18:38;;;;;;;4.10;1.80;;;;;;;23.80;100.00;102146.00;5137708;28;20042;-71
2023/09/25 11:21:10;;;;;;;3.15;1.55;;;;;;;23.76;100.00;102142.88;5125055;28;20042;-72
2023/09/25 11:23:43;;;;;;;4.57;1.65;;;;;;;23.95;100.00;102137.44;5143211;28;20073;-71
2023/09/25 11:26:14;;;;;;;2.97;1.77;;;;;;;23.72;100.00;102146.25;5138531;28;20173;-71
2023/09/25 11:28:45;;;;;;;4.95;1.67;;;;;;;23.62;100.00;102143.97;5140276;28;20026;-71
2023/09/25 11:31:15;;;;;;;6.75;2.00;;;;;;;23.73;100.00;102145.19;5137297;28;20648;-72
2023/09/25 11:33:47;;;;;;;3.38;1.88;;;;;;;23.86;100.00;102128.66;5120226;28;20023;-71
2023/09/25 11:36:18;;;;;;;3.72;1.70;;;;;;;24.08;100.00;102128.25;5139940;28;20030;-71